createdAt,value
2019-02-12T00:01:06.686Z,3.60
2019-02-12T00:03:36.106Z,3.55
2019-02-12T00:06:05.450Z,3.55
2019-02-12T00:08:34.535Z,3.55
2019-02-12T00:11:03.734Z,3.55
2019-02-12T00:13:33.067Z,3.49
2019-02-12T00:16:02.333Z,3.66
2019-02-12T00:18:31.440Z,3.83
2019-02-12T00:21:08.768Z,3.79
2019-02-12T00:23:31.368Z,3.66
2019-02-12T00:26:00.531Z,3.66
2019-02-12T00:28:29.584Z,3.58
2019-02-12T00:30:58.688Z,3.58
2019-02-12T00:33:27.774Z,3.58
2019-02-12T00:35:56.874Z,3.54
2019-02-12T00:38:26.259Z,3.54
2019-02-12T00:40:55.360Z,3.54
2019-02-12T00:43:24.634Z,3.56
2019-02-12T00:45:53.809Z,3.56
2019-02-12T00:48:23.149Z,3.43
2019-02-12T00:50:52.459Z,3.43
2019-02-12T00:53:21.599Z,3.55
2019-02-12T00:55:50.825Z,3.55
2019-02-12T00:58:20.352Z,3.44
2019-02-12T01:00:49.530Z,3.44
2019-02-12T01:03:18.708Z,3.50
2019-02-12T01:05:47.831Z,3.50
2019-02-12T01:08:16.880Z,3.45
2019-02-12T01:10:46.085Z,3.40
2019-02-12T01:13:15.145Z,3.51
2019-02-12T01:15:44.485Z,3.46
2019-02-12T01:18:13.572Z,3.46
2019-02-12T01:20:42.947Z,3.34
2019-02-12T01:23:12.140Z,3.34
2019-02-12T01:25:41.293Z,3.25
2019-02-12T01:28:10.671Z,3.21
2019-02-12T01:30:39.757Z,3.21
2019-02-12T01:33:09.092Z,3.22
2019-02-12T01:35:38.235Z,3.26
2019-02-12T01:38:07.525Z,3.27
2019-02-12T01:40:38.085Z,3.27
2019-02-12T01:43:07.204Z,3.30
2019-02-12T01:45:36.315Z,3.30
2019-02-12T01:48:05.441Z,3.10
2019-02-12T01:50:34.759Z,3.10
2019-02-12T01:53:03.916Z,3.12
2019-02-12T01:55:33.029Z,3.15
2019-02-12T01:58:02.130Z,3.15
2019-02-12T02:00:31.436Z,3.29
2019-02-12T02:03:00.683Z,3.20
2019-02-12T02:05:29.847Z,3.20
2019-02-12T02:07:59.135Z,3.19
2019-02-12T02:10:28.403Z,3.04
2019-02-12T02:12:57.608Z,3.04
2019-02-12T02:15:26.734Z,3.06
2019-02-12T02:17:55.863Z,3.06
2019-02-12T02:20:25.224Z,3.10
2019-02-12T02:22:54.445Z,3.10
2019-02-12T02:25:23.613Z,3.07
2019-02-12T02:27:52.927Z,3.01
2019-02-12T02:30:22.127Z,2.97
2019-02-12T02:32:51.234Z,2.97
2019-02-12T02:35:20.478Z,2.99
2019-02-12T02:37:49.885Z,2.99
2019-02-12T02:40:19.076Z,3.16
2019-02-12T02:42:48.336Z,3.16
2019-02-12T02:45:17.485Z,3.18
2019-02-12T02:47:46.752Z,3.04
2019-02-12T02:50:15.821Z,3.04
2019-02-12T02:52:44.917Z,3.01
2019-02-12T02:55:14.332Z,3.08
2019-02-12T02:57:43.434Z,3.05
2019-02-12T03:00:12.775Z,2.95
2019-02-12T03:02:41.918Z,2.95
2019-02-12T03:05:11.466Z,2.93
2019-02-12T03:07:40.554Z,2.93
2019-02-12T03:10:10.060Z,3.05
2019-02-12T03:12:39.158Z,3.05
2019-02-12T03:15:10.322Z,3.10
2019-02-12T03:17:39.569Z,3.08
2019-02-12T03:20:10.356Z,3.15
2019-02-12T03:22:39.849Z,3.17
2019-02-12T03:25:09.707Z,3.17
2019-02-12T03:27:39.290Z,3.20
2019-02-12T03:30:09.569Z,3.20
2019-02-12T03:32:38.841Z,3.17
2019-02-12T03:35:08.705Z,3.17
2019-02-12T03:37:37.798Z,3.24
2019-02-12T03:40:08.626Z,3.24
2019-02-12T03:42:37.759Z,3.22
2019-02-12T03:45:07.487Z,3.11
2019-02-12T03:47:36.737Z,3.11
2019-02-12T03:50:06.922Z,3.07
2019-02-12T03:52:36.139Z,3.15
2019-02-12T03:55:05.784Z,2.95
2019-02-12T03:57:34.995Z,2.95
2019-02-12T04:00:04.247Z,2.97
2019-02-12T04:02:33.361Z,2.92
2019-02-12T04:05:02.470Z,2.99
2019-02-12T04:07:31.600Z,2.99
2019-02-12T04:10:00.784Z,3.06
2019-02-12T04:12:29.938Z,2.97
2019-02-12T04:14:59.291Z,2.83
2019-02-12T04:17:28.682Z,2.83
2019-02-12T04:19:57.839Z,2.98
2019-02-12T04:22:27.081Z,2.98
2019-02-12T04:24:56.152Z,2.98
2019-02-12T04:27:25.267Z,2.99
2019-02-12T04:29:54.328Z,2.99
2019-02-12T04:32:23.771Z,2.93
2019-02-12T04:34:52.832Z,2.81
2019-02-12T04:37:22.119Z,2.74
2019-02-12T04:39:51.309Z,2.74
2019-02-12T04:42:20.606Z,2.66
2019-02-12T04:44:49.722Z,2.66
2019-02-12T04:47:19.120Z,2.63
2019-02-12T04:49:48.344Z,2.71
2019-02-12T04:52:17.408Z,2.71
2019-02-12T04:54:46.665Z,2.67
2019-02-12T04:57:15.913Z,2.57
2019-02-12T04:59:45.138Z,2.56
2019-02-12T05:02:14.344Z,2.56
2019-02-12T05:04:43.552Z,2.57
2019-02-12T05:07:12.817Z,2.66
2019-02-12T05:09:44.999Z,2.63
2019-02-12T05:12:16.127Z,2.54
2019-02-12T05:14:45.450Z,2.54
2019-02-12T05:17:14.566Z,2.48
2019-02-12T05:19:43.838Z,2.50
2019-02-12T05:22:13.251Z,2.65
2019-02-12T05:24:42.452Z,2.64
2019-02-12T05:27:11.534Z,2.59
2019-02-12T05:29:42.043Z,2.59
2019-02-12T05:32:11.144Z,2.65
2019-02-12T05:34:40.361Z,2.73
2019-02-12T05:37:09.441Z,2.56
2019-02-12T05:39:38.549Z,2.46
2019-02-12T05:42:07.679Z,2.46
2019-02-12T05:44:37.169Z,2.51
2019-02-12T05:47:07.016Z,2.67
2019-02-12T05:49:36.326Z,2.67
2019-02-12T05:52:05.439Z,2.59
2019-02-12T05:54:34.807Z,2.59
2019-02-12T05:57:04.024Z,2.54
2019-02-12T05:59:33.444Z,2.54
2019-02-12T06:02:02.549Z,2.58
2019-02-12T06:04:31.707Z,2.58
2019-02-12T06:07:01.263Z,2.68
2019-02-12T06:09:30.555Z,2.68
2019-02-12T06:11:59.593Z,2.67
2019-02-12T06:14:28.679Z,2.71
2019-02-12T06:16:57.753Z,2.87
2019-02-12T06:19:27.058Z,2.75
2019-02-12T06:21:56.368Z,2.75
2019-02-12T06:24:25.460Z,2.68
2019-02-12T06:26:54.640Z,2.68
2019-02-12T06:29:23.918Z,2.62
2019-02-12T06:31:53.245Z,2.79
2019-02-12T06:34:22.325Z,2.70
2019-02-12T06:36:51.552Z,2.70
2019-02-12T06:39:20.669Z,2.61
2019-02-12T06:41:50.127Z,2.61
2019-02-12T06:44:19.389Z,2.67
2019-02-12T06:46:48.619Z,2.67
2019-02-12T06:49:17.710Z,2.69
2019-02-12T06:51:46.812Z,2.67
2019-02-12T06:54:16.328Z,2.85
2019-02-12T06:56:45.770Z,2.97
2019-02-12T06:59:15.086Z,2.92
2019-02-12T07:01:44.212Z,2.82
2019-02-12T07:04:19.405Z,2.82
2019-02-12T07:07:16.844Z,2.90
2019-02-12T07:09:55.738Z,2.85
2019-02-12T07:12:51.189Z,2.74
2019-02-12T07:15:39.827Z,2.80
2019-02-12T07:18:57.113Z,2.87
2019-02-12T07:21:55.404Z,2.87
2019-02-12T07:24:46.012Z,2.87
2019-02-12T07:28:08.627Z,2.94
2019-02-12T07:31:14.849Z,2.94
2019-02-12T07:34:16.586Z,2.98
2019-02-12T07:37:10.042Z,3.01
2019-02-12T07:40:11.063Z,3.10
2019-02-12T07:42:59.618Z,3.18
2019-02-12T07:46:01.573Z,3.18
2019-02-12T07:49:08.794Z,3.38
2019-02-12T07:51:56.419Z,3.66
2019-02-12T07:55:06.666Z,3.77
2019-02-12T07:58:25.333Z,3.76
2019-02-12T08:01:14.905Z,3.76
2019-02-12T08:04:08.988Z,3.78
2019-02-12T08:07:26.076Z,3.69
2019-02-12T08:10:31.403Z,4.03
2019-02-12T08:13:50.101Z,4.03
2019-02-12T08:17:05.375Z,4.42
2019-02-12T08:20:02.737Z,4.78
2019-02-12T08:22:57.347Z,5.14
2019-02-12T08:26:13.558Z,5.44
2019-02-12T08:29:11.552Z,5.31
2019-02-12T08:32:02.204Z,5.42
2019-02-12T08:35:07.325Z,5.31
2019-02-12T08:38:04.572Z,5.35
2019-02-12T08:41:05.169Z,5.35
2019-02-12T08:44:03.495Z,5.06
2019-02-12T08:46:58.874Z,5.06
2019-02-12T08:50:06.146Z,4.94
2019-02-12T08:53:01.056Z,4.90
2019-02-12T08:55:50.986Z,5.12
2019-02-12T08:58:56.687Z,5.12
2019-02-12T09:02:25.273Z,5.19
2019-02-12T09:05:50.581Z,5.19
2019-02-12T09:08:55.684Z,5.26
2019-02-12T09:12:07.804Z,5.21
2019-02-12T09:15:05.409Z,5.12
2019-02-12T09:17:54.252Z,5.12
2019-02-12T09:21:01.662Z,5.13
2019-02-12T09:24:12.028Z,5.13
2019-02-12T09:27:15.062Z,5.10
2019-02-12T09:30:22.393Z,5.10
2019-02-12T09:33:16.566Z,5.20
2019-02-12T09:36:30.683Z,5.42
2019-02-12T09:39:36.274Z,6.18
2019-02-12T09:42:37.330Z,6.42
2019-02-12T09:45:28.441Z,6.42
2019-02-12T09:48:31.736Z,6.66
2019-02-12T09:51:34.734Z,7.00
2019-02-12T09:54:42.350Z,7.26
2019-02-12T09:57:55.608Z,7.42
2019-02-12T10:01:10.015Z,7.42
2019-02-12T10:04:13.396Z,7.40
2019-02-12T10:07:06.551Z,7.38
2019-02-12T10:10:10.544Z,7.47
2019-02-12T10:12:47.461Z,7.29
2019-02-12T10:15:57.645Z,7.30
2019-02-12T10:19:12.663Z,7.25
2019-02-12T10:22:09.557Z,7.29
2019-02-12T10:24:53.102Z,7.50
2019-02-12T10:28:15.503Z,7.70
2019-02-12T10:31:08.723Z,7.75
2019-02-12T10:33:37.987Z,7.91
2019-02-12T10:36:07.278Z,7.86
2019-02-12T10:38:36.314Z,7.75
2019-02-12T10:41:05.458Z,7.65
2019-02-12T10:43:34.753Z,7.66
2019-02-12T10:46:04.072Z,7.80
2019-02-12T10:48:33.174Z,7.85
2019-02-12T10:51:02.624Z,7.95
2019-02-12T10:53:31.674Z,8.02
2019-02-12T10:56:00.776Z,8.05
2019-02-12T10:58:30.207Z,7.96
2019-02-12T11:00:59.433Z,7.89
2019-02-12T11:03:28.827Z,7.72
2019-02-12T11:05:57.890Z,7.53
2019-02-12T11:08:27.128Z,7.53
2019-02-12T11:10:56.654Z,7.53
2019-02-12T11:13:25.683Z,7.55
2019-02-12T11:15:54.833Z,7.60
2019-02-12T11:18:23.907Z,7.59
2019-02-12T11:20:53.136Z,7.63
2019-02-12T11:23:22.377Z,7.68
2019-02-12T11:25:51.686Z,7.71
2019-02-12T11:28:20.857Z,7.83
2019-02-12T11:30:50.306Z,7.67
2019-02-12T11:33:19.587Z,7.55
2019-02-12T11:35:48.704Z,7.47
2019-02-12T11:38:18.008Z,7.46
2019-02-12T11:40:47.155Z,7.73
2019-02-12T11:43:16.295Z,7.84
2019-02-12T11:45:45.463Z,8.03
2019-02-12T11:48:14.565Z,8.17
2019-02-12T11:50:43.874Z,8.13
2019-02-12T11:53:12.981Z,8.18
2019-02-12T11:55:42.168Z,8.19
2019-02-12T11:58:11.485Z,8.11
2019-02-12T12:00:44.736Z,8.21
2019-02-12T12:03:13.884Z,8.17
2019-02-12T12:05:43.085Z,8.19
2019-02-12T12:08:12.190Z,8.22
2019-02-12T12:10:41.547Z,8.33
2019-02-12T12:13:10.669Z,8.43
2019-02-12T12:15:39.839Z,8.39
2019-02-12T12:18:09.182Z,8.30
2019-02-12T12:20:38.265Z,8.38
2019-02-12T12:23:07.524Z,8.27
2019-02-12T12:25:36.806Z,8.26
2019-02-12T12:28:06.042Z,8.19
2019-02-12T12:30:35.180Z,8.01
2019-02-12T12:33:04.458Z,8.01
2019-02-12T12:35:33.759Z,8.09
2019-02-12T12:38:02.946Z,7.98
2019-02-12T12:40:32.362Z,7.87
2019-02-12T12:43:01.427Z,7.84
2019-02-12T12:45:30.657Z,7.47
2019-02-12T12:47:59.957Z,7.46
2019-02-12T12:50:29.259Z,7.40
2019-02-12T12:52:58.343Z,7.51
2019-02-12T12:55:27.430Z,7.51
2019-02-12T12:57:57.341Z,7.47
2019-02-12T13:00:26.948Z,7.43
2019-02-12T13:02:56.175Z,7.45
2019-02-12T13:05:25.308Z,7.31
2019-02-12T13:07:54.520Z,7.28
2019-02-12T13:10:23.858Z,7.26
2019-02-12T13:12:52.932Z,7.34
2019-02-12T13:15:22.231Z,7.29
2019-02-12T13:17:51.424Z,7.30
2019-02-12T13:20:20.670Z,7.33
2019-02-12T13:22:49.746Z,7.30
2019-02-12T13:25:19.049Z,7.27
2019-02-12T13:27:48.313Z,7.26
2019-02-12T13:30:17.537Z,7.28
2019-02-12T13:32:46.750Z,7.35
2019-02-12T13:35:15.845Z,7.31
2019-02-12T13:37:45.233Z,7.35
2019-02-12T13:40:14.300Z,7.31
2019-02-12T13:42:43.470Z,7.26
2019-02-12T13:45:14.017Z,7.33
2019-02-12T13:47:43.489Z,7.24
2019-02-12T13:50:12.611Z,7.32
2019-02-12T13:52:41.786Z,7.30
2019-02-12T13:55:17.008Z,7.30
2019-02-12T13:57:42.919Z,7.22
2019-02-12T14:00:13.320Z,7.22
2019-02-12T14:02:42.405Z,7.20
2019-02-12T14:05:14.238Z,7.22
2019-02-12T14:07:43.709Z,7.23
2019-02-12T14:10:12.883Z,7.36
2019-02-12T14:12:42.107Z,7.38
2019-02-12T14:15:13.121Z,7.49
2019-02-12T14:17:42.662Z,7.46
2019-02-12T14:20:13.147Z,7.55
2019-02-12T14:22:42.229Z,7.68
2019-02-12T14:25:11.591Z,7.75
2019-02-12T14:27:40.685Z,7.86
2019-02-12T14:30:12.582Z,7.85
2019-02-12T14:32:41.681Z,7.80
2019-02-12T14:35:11.897Z,7.65
2019-02-12T14:37:41.167Z,7.69
2019-02-12T14:40:11.363Z,7.61
2019-02-12T14:42:40.474Z,7.50
2019-02-12T14:45:11.668Z,7.50
2019-02-12T14:47:40.810Z,7.53
2019-02-12T14:50:11.093Z,7.58
2019-02-12T14:52:40.278Z,7.52
2019-02-12T14:55:09.583Z,7.50
2019-02-12T14:57:39.969Z,7.57
2019-02-12T15:00:11.913Z,7.55
2019-02-12T15:02:41.125Z,7.52
2019-02-12T15:05:10.323Z,7.43
2019-02-12T15:07:39.523Z,7.35
2019-02-12T15:10:09.873Z,7.34
2019-02-12T15:12:38.971Z,7.37
2019-02-12T15:15:08.641Z,7.43
2019-02-12T15:17:37.725Z,7.31
2019-02-12T15:20:08.008Z,7.40
2019-02-12T15:22:37.071Z,7.22
2019-02-12T15:25:06.939Z,7.14
2019-02-12T15:27:36.166Z,7.16
2019-02-12T15:30:07.030Z,7.12
2019-02-12T15:32:36.088Z,7.05
2019-02-12T15:35:06.068Z,7.01
2019-02-12T15:37:35.119Z,6.91
2019-02-12T15:40:04.931Z,6.92
2019-02-12T15:42:34.469Z,6.84
2019-02-12T15:45:03.848Z,6.70
2019-02-12T15:47:32.896Z,6.65
2019-02-12T15:50:02.162Z,6.69
2019-02-12T15:52:31.398Z,6.61
2019-02-12T15:55:00.628Z,6.52
2019-02-12T15:57:29.897Z,6.60
2019-02-12T15:59:59.167Z,6.63
2019-02-12T16:02:28.438Z,6.53
2019-02-12T16:04:57.707Z,6.45
2019-02-12T16:07:26.972Z,6.46
2019-02-12T16:09:57.010Z,6.53
2019-02-12T16:12:26.799Z,6.45
2019-02-12T16:14:59.226Z,6.41
2019-02-12T16:17:28.368Z,6.40
2019-02-12T16:19:57.920Z,6.33
2019-02-12T16:22:27.038Z,6.41
2019-02-12T16:24:58.440Z,6.39
2019-02-12T16:27:27.847Z,6.36
2019-02-12T16:29:57.553Z,6.36
2019-02-12T16:32:26.893Z,6.30
2019-02-12T16:34:56.038Z,6.24
2019-02-12T16:37:25.323Z,6.18
2019-02-12T16:39:54.645Z,6.17
2019-02-12T16:42:24.181Z,6.11
2019-02-12T16:44:53.944Z,6.10
2019-02-12T16:47:23.238Z,6.11
2019-02-12T16:49:52.740Z,6.05
2019-02-12T16:52:22.057Z,5.99
2019-02-12T16:54:52.020Z,5.99
2019-02-12T16:57:21.684Z,6.06
2019-02-12T16:59:51.441Z,6.10
2019-02-12T17:02:20.560Z,6.03
2019-02-12T17:04:49.675Z,5.96
2019-02-12T17:07:19.594Z,6.03
2019-02-12T17:09:52.266Z,5.94
2019-02-12T17:12:21.345Z,5.86
2019-02-12T17:14:50.616Z,5.81
2019-02-12T17:17:19.738Z,5.83
2019-02-12T17:19:48.996Z,5.86
2019-02-12T17:22:18.284Z,5.78
2019-02-12T17:24:47.396Z,5.76
2019-02-12T17:27:16.816Z,5.70
2019-02-12T17:29:46.798Z,5.61
2019-02-12T17:32:16.026Z,5.64
2019-02-12T17:34:47.384Z,5.64
2019-02-12T17:37:16.633Z,5.74
2019-02-12T17:39:46.520Z,5.69
2019-02-12T17:42:16.222Z,5.62
2019-02-12T17:44:45.755Z,5.55
2019-02-12T17:47:15.055Z,5.56
2019-02-12T17:49:44.490Z,5.50
2019-02-12T17:52:13.887Z,5.59
2019-02-12T17:54:43.031Z,5.58
2019-02-12T17:57:12.274Z,5.48
2019-02-12T17:59:41.407Z,5.46
2019-02-12T18:02:10.462Z,5.47
2019-02-12T18:04:39.801Z,5.44
2019-02-12T18:07:09.111Z,5.41
2019-02-12T18:09:40.606Z,5.39
2019-02-12T18:12:09.704Z,5.39
2019-02-12T18:14:39.666Z,5.36
2019-02-12T18:17:09.017Z,5.37
2019-02-12T18:19:38.096Z,5.33
2019-02-12T18:22:07.393Z,5.27
2019-02-12T18:24:37.229Z,5.23
2019-02-12T18:27:07.423Z,5.25
2019-02-12T18:29:37.100Z,5.38
2019-02-12T18:32:08.334Z,5.28
2019-02-12T18:34:37.451Z,5.17
2019-02-12T18:37:06.989Z,5.09
2019-02-12T18:39:37.890Z,5.00
2019-02-12T18:42:07.580Z,4.92
2019-02-12T18:44:37.056Z,4.82
2019-02-12T18:47:06.370Z,4.81
2019-02-12T18:49:37.758Z,4.83
2019-02-12T18:52:07.636Z,4.71
2019-02-12T18:54:36.886Z,4.61
2019-02-12T18:57:06.350Z,4.51
2019-02-12T18:59:35.605Z,4.46
2019-02-12T19:02:06.277Z,4.40
2019-02-12T19:04:35.633Z,4.33
2019-02-12T19:07:05.228Z,4.20
2019-02-12T19:09:34.495Z,4.17
2019-02-12T19:12:03.910Z,3.98
2019-02-12T19:14:33.316Z,3.87
2019-02-12T19:17:02.808Z,3.82
2019-02-12T19:19:32.185Z,3.74
2019-02-12T19:22:01.556Z,3.57
2019-02-12T19:24:31.662Z,3.52
2019-02-12T19:27:01.065Z,3.52
2019-02-12T19:29:30.652Z,3.37
2019-02-12T19:32:00.026Z,3.37
2019-02-12T19:34:29.756Z,3.34
2019-02-12T19:36:58.911Z,3.34
2019-02-12T19:39:28.415Z,3.25
2019-02-12T19:41:58.028Z,3.00
2019-02-12T19:44:27.476Z,3.00
2019-02-12T19:46:56.794Z,2.97
2019-02-12T19:49:26.054Z,2.91
2019-02-12T19:51:56.258Z,2.72
2019-02-12T19:54:25.784Z,2.72
2019-02-12T19:56:58.339Z,2.72
2019-02-12T19:59:26.829Z,2.70
2019-02-12T20:01:56.505Z,2.77
2019-02-12T20:04:26.598Z,2.70
2019-02-12T20:06:55.973Z,2.58
2019-02-12T20:09:25.558Z,2.58
2019-02-12T20:11:54.711Z,2.45
2019-02-12T20:14:23.973Z,2.46
2019-02-12T20:16:55.618Z,2.47
2019-02-12T20:19:25.144Z,2.42
2019-02-12T20:21:54.288Z,2.42
2019-02-12T20:24:23.543Z,2.38
2019-02-12T20:26:52.811Z,2.23
2019-02-12T20:29:22.120Z,2.08
2019-02-12T20:31:51.235Z,2.14
2019-02-12T20:34:20.445Z,2.08
2019-02-12T20:36:49.771Z,2.02
2019-02-12T20:39:20.094Z,1.91
2019-02-12T20:41:49.405Z,1.83
2019-02-12T20:44:18.699Z,1.91
2019-02-12T20:46:47.804Z,1.85
2019-02-12T20:49:16.946Z,1.68
2019-02-12T20:51:46.228Z,1.63
2019-02-12T20:54:15.424Z,1.61
2019-02-12T20:56:46.408Z,1.66
2019-02-12T20:59:15.624Z,1.65
2019-02-12T21:01:44.797Z,1.60
2019-02-12T21:04:13.963Z,1.63
2019-02-12T21:06:43.254Z,1.60
2019-02-12T21:09:12.859Z,1.57
2019-02-12T21:11:41.979Z,1.58
2019-02-12T21:14:11.354Z,1.44
2019-02-12T21:16:40.620Z,1.46
2019-02-12T21:19:09.692Z,1.45
2019-02-12T21:21:38.937Z,1.53
2019-02-12T21:24:08.517Z,1.48
2019-02-12T21:26:37.964Z,1.51
2019-02-12T21:29:07.146Z,1.52
2019-02-12T21:31:36.459Z,1.56
2019-02-12T21:34:05.666Z,1.64
2019-02-12T21:36:35.575Z,1.50
2019-02-12T21:39:06.378Z,1.35
2019-02-12T21:41:35.580Z,1.36
2019-02-12T21:44:05.269Z,1.36
2019-02-12T21:46:34.464Z,1.29
2019-02-12T21:49:03.956Z,1.17
2019-02-12T21:51:33.117Z,1.23
2019-02-12T21:54:04.475Z,1.14
2019-02-12T21:56:33.761Z,1.06
2019-02-12T21:59:04.705Z,1.12
2019-02-12T22:01:33.941Z,1.20
2019-02-12T22:04:03.061Z,1.21
2019-02-12T22:06:32.333Z,1.24
2019-02-12T22:09:01.862Z,1.27
2019-02-12T22:11:31.024Z,1.25
2019-02-12T22:14:00.114Z,1.22
2019-02-12T22:16:29.231Z,1.21
2019-02-12T22:18:58.379Z,1.24
2019-02-12T22:21:27.545Z,1.17
2019-02-12T22:23:56.889Z,1.15
2019-02-12T22:26:26.063Z,1.22
2019-02-12T22:28:55.248Z,1.17
2019-02-12T22:31:24.588Z,1.14
2019-02-12T22:33:53.705Z,1.15
2019-02-12T22:36:22.859Z,1.11
2019-02-12T22:38:52.199Z,1.10
2019-02-12T22:41:21.448Z,0.99
2019-02-12T22:43:50.770Z,1.05
2019-02-12T22:46:19.926Z,1.04
2019-02-12T22:48:49.058Z,1.02
2019-02-12T22:51:18.236Z,1.06
2019-02-12T22:53:47.511Z,1.01
2019-02-12T22:56:16.762Z,1.01
2019-02-12T22:58:45.880Z,0.92
2019-02-12T23:01:15.449Z,0.83
2019-02-12T23:03:44.544Z,0.83
2019-02-12T23:06:13.686Z,0.61
2019-02-12T23:08:42.989Z,0.55
2019-02-12T23:11:12.199Z,0.52
2019-02-12T23:13:41.314Z,0.56
2019-02-12T23:16:11.792Z,0.52
2019-02-12T23:18:40.857Z,0.60
2019-02-12T23:21:13.921Z,0.56
2019-02-12T23:23:43.024Z,0.60
2019-02-12T23:26:12.347Z,0.62
2019-02-12T23:28:41.405Z,0.59
2019-02-12T23:31:10.567Z,0.58
2019-02-12T23:33:39.920Z,0.58
2019-02-12T23:36:09.081Z,0.57
2019-02-12T23:38:38.310Z,0.60
2019-02-12T23:41:07.695Z,0.52
2019-02-12T23:43:36.915Z,0.52
2019-02-12T23:46:05.992Z,0.38
2019-02-12T23:48:35.358Z,0.41
2019-02-12T23:51:04.655Z,0.41
2019-02-12T23:53:33.763Z,0.38
2019-02-12T23:56:02.904Z,0.49
2019-02-12T23:58:32.381Z,0.34
